sensor_id;sensor_type;location;lat;lon;timestamp;P1;durP1;ratioP1;P2;durP2;ratioP2
37657;SDS011;23500;53.268;8.308;2023-11-21T00:00:19;4.03;;;2.40;;
37657;SDS011;23500;53.268;8.308;2023-11-21T00:02:44;4.68;;;2.60;;
37657;SDS011;23500;53.268;8.308;2023-11-21T00:05:11;3.78;;;2.28;;
37657;SDS011;23500;53.268;8.308;2023-11-21T00:07:39;4.90;;;2.53;;
37657;SDS011;23500;53.268;8.308;2023-11-21T00:10:05;4.75;;;2.45;;
37657;SDS011;23500;53.268;8.308;2023-11-21T00:12:33;5.07;;;2.45;;
37657;SDS011;23500;53.268;8.308;2023-11-21T00:14:59;4.45;;;2.40;;
37657;SDS011;23500;53.268;8.308;2023-11-21T00:17:25;3.33;;;2.10;;
37657;SDS011;23500;53.268;8.308;2023-11-21T00:19:50;3.95;;;2.58;;
37657;SDS011;23500;53.268;8.308;2023-11-21T00:22:19;4.38;;;2.72;;
37657;SDS011;23500;53.268;8.308;2023-11-21T00:24:45;3.03;;;1.92;;
37657;SDS011;23500;53.268;8.308;2023-11-21T00:27:12;3.20;;;2.17;;
37657;SDS011;23500;53.268;8.308;2023-11-21T00:29:37;5.53;;;2.40;;
37657;SDS011;23500;53.268;8.308;2023-11-21T00:32:06;3.03;;;2.20;;
37657;SDS011;23500;53.268;8.308;2023-11-21T00:34:32;4.20;;;1.95;;
37657;SDS011;23500;53.268;8.308;2023-11-21T00:36:58;3.72;;;2.28;;
37657;SDS011;23500;53.268;8.308;2023-11-21T00:39:24;4.45;;;2.08;;
37657;SDS011;23500;53.268;8.308;2023-11-21T00:41:52;4.40;;;2.38;;
37657;SDS011;23500;53.268;8.308;2023-11-21T00:44:18;3.85;;;2.13;;
37657;SDS011;23500;53.268;8.308;2023-11-21T00:46:43;4.40;;;2.70;;
37657;SDS011;23500;53.268;8.308;2023-11-21T00:49:09;3.17;;;2.03;;
37657;SDS011;23500;53.268;8.308;2023-11-21T00:51:35;3.13;;;2.10;;
37657;SDS011;23500;53.268;8.308;2023-11-21T00:54:01;3.40;;;2.33;;
37657;SDS011;23500;53.268;8.308;2023-11-21T00:56:27;3.70;;;2.38;;
37657;SDS011;23500;53.268;8.308;2023-11-21T00:58:53;3.15;;;2.15;;
37657;SDS011;23500;53.268;8.308;2023-11-21T01:01:19;3.85;;;2.15;;
37657;SDS011;23500;53.268;8.308;2023-11-21T01:03:47;4.03;;;2.08;;
37657;SDS011;23500;53.268;8.308;2023-11-21T01:06:13;2.65;;;1.90;;
37657;SDS011;23500;53.268;8.308;2023-11-21T01:08:40;4.32;;;2.08;;
37657;SDS011;23500;53.268;8.308;2023-11-21T01:11:05;3.45;;;2.10;;
37657;SDS011;23500;53.268;8.308;2023-11-21T01:13:33;3.30;;;2.15;;
37657;SDS011;23500;53.268;8.308;2023-11-21T01:16:00;2.92;;;1.95;;
37657;SDS011;23500;53.268;8.308;2023-11-21T01:18:26;4.65;;;2.25;;
37657;SDS011;23500;53.268;8.308;2023-11-21T01:20:52;3.78;;;2.20;;
37657;SDS011;23500;53.268;8.308;2023-11-21T01:23:20;2.92;;;2.05;;
37657;SDS011;23500;53.268;8.308;2023-11-21T01:25:46;3.70;;;2.03;;
37657;SDS011;23500;53.268;8.308;2023-11-21T01:28:11;2.95;;;1.98;;
37657;SDS011;23500;53.268;8.308;2023-11-21T01:30:37;3.88;;;2.15;;
37657;SDS011;23500;53.268;8.308;2023-11-21T01:33:03;3.00;;;1.80;;
37657;SDS011;23500;53.268;8.308;2023-11-21T01:35:29;4.15;;;2.28;;
37657;SDS011;23500;53.268;8.308;2023-11-21T01:37:55;3.42;;;2.22;;
37657;SDS011;23500;53.268;8.308;2023-11-21T01:40:21;4.03;;;2.20;;
37657;SDS011;23500;53.268;8.308;2023-11-21T01:42:47;3.90;;;1.90;;
37657;SDS011;23500;53.268;8.308;2023-11-21T01:45:13;2.30;;;1.77;;
37657;SDS011;23500;53.268;8.308;2023-11-21T01:47:40;4.57;;;1.98;;
37657;SDS011;23500;53.268;8.308;2023-11-21T01:50:07;2.58;;;1.88;;
37657;SDS011;23500;53.268;8.308;2023-11-21T01:52:36;3.00;;;2.15;;
37657;SDS011;23500;53.268;8.308;2023-11-21T01:55:04;3.08;;;1.85;;
37657;SDS011;23500;53.268;8.308;2023-11-21T01:57:31;3.35;;;2.10;;
37657;SDS011;23500;53.268;8.308;2023-11-21T01:59:57;3.15;;;2.00;;
37657;SDS011;23500;53.268;8.308;2023-11-21T02:02:40;4.32;;;2.20;;
37657;SDS011;23500;53.268;8.308;2023-11-21T02:05:19;2.97;;;1.77;;
37657;SDS011;23500;53.268;8.308;2023-11-21T02:07:46;2.63;;;1.90;;
37657;SDS011;23500;53.268;8.308;2023-11-21T02:10:13;3.67;;;2.08;;
37657;SDS011;23500;53.268;8.308;2023-11-21T02:12:40;3.42;;;1.80;;
37657;SDS011;23500;53.268;8.308;2023-11-21T02:15:08;2.28;;;1.80;;
37657;SDS011;23500;53.268;8.308;2023-11-21T02:17:42;2.05;;;1.70;;
37657;SDS011;23500;53.268;8.308;2023-11-21T02:20:12;5.38;;;2.05;;
37657;SDS011;23500;53.268;8.308;2023-11-21T02:22:41;3.58;;;1.90;;
37657;SDS011;23500;53.268;8.308;2023-11-21T02:25:07;2.67;;;1.60;;
37657;SDS011;23500;53.268;8.308;2023-11-21T02:27:33;3.60;;;2.10;;
37657;SDS011;23500;53.268;8.308;2023-11-21T02:29:59;2.83;;;1.70;;
37657;SDS011;23500;53.268;8.308;2023-11-21T02:32:26;3.53;;;1.92;;
37657;SDS011;23500;53.268;8.308;2023-11-21T02:34:52;3.17;;;1.83;;
37657;SDS011;23500;53.268;8.308;2023-11-21T02:37:20;3.00;;;2.10;;
37657;SDS011;23500;53.268;8.308;2023-11-21T02:39:46;3.97;;;1.90;;
37657;SDS011;23500;53.268;8.308;2023-11-21T02:42:12;2.80;;;1.80;;
37657;SDS011;23500;53.268;8.308;2023-11-21T02:44:38;2.75;;;1.80;;
37657;SDS011;23500;53.268;8.308;2023-11-21T02:47:03;3.20;;;2.13;;
37657;SDS011;23500;53.268;8.308;2023-11-21T02:49:29;2.10;;;1.70;;
37657;SDS011;23500;53.268;8.308;2023-11-21T02:51:55;2.40;;;1.73;;
37657;SDS011;23500;53.268;8.308;2023-11-21T02:54:21;2.80;;;1.77;;
37657;SDS011;23500;53.268;8.308;2023-11-21T02:56:47;2.63;;;1.67;;
37657;SDS011;23500;53.268;8.308;2023-11-21T02:59:14;2.42;;;1.60;;
37657;SDS011;23500;53.268;8.308;2023-11-21T03:01:40;2.88;;;1.90;;
37657;SDS011;23500;53.268;8.308;2023-11-21T03:04:06;2.47;;;1.75;;
37657;SDS011;23500;53.268;8.308;2023-11-21T03:06:32;2.78;;;1.80;;
37657;SDS011;23500;53.268;8.308;2023-11-21T03:08:58;2.08;;;1.52;;
37657;SDS011;23500;53.268;8.308;2023-11-21T03:11:24;2.25;;;1.50;;
37657;SDS011;23500;53.268;8.308;2023-11-21T03:13:50;2.83;;;1.67;;
37657;SDS011;23500;53.268;8.308;2023-11-21T03:16:16;2.60;;;1.80;;
37657;SDS011;23500;53.268;8.308;2023-11-21T03:18:42;2.35;;;1.70;;
37657;SDS011;23500;53.268;8.308;2023-11-21T03:21:08;2.60;;;1.60;;
37657;SDS011;23500;53.268;8.308;2023-11-21T03:23:34;2.25;;;1.58;;
37657;SDS011;23500;53.268;8.308;2023-11-21T03:26:01;2.25;;;1.70;;
37657;SDS011;23500;53.268;8.308;2023-11-21T03:28:27;2.05;;;1.58;;
37657;SDS011;23500;53.268;8.308;2023-11-21T03:30:53;2.92;;;1.95;;
37657;SDS011;23500;53.268;8.308;2023-11-21T03:33:19;1.70;;;1.40;;
37657;SDS011;23500;53.268;8.308;2023-11-21T03:35:45;1.85;;;1.50;;
37657;SDS011;23500;53.268;8.308;2023-11-21T03:38:11;2.75;;;1.73;;
37657;SDS011;23500;53.268;8.308;2023-11-21T03:40:37;2.03;;;1.48;;
37657;SDS011;23500;53.268;8.308;2023-11-21T03:43:04;2.25;;;1.55;;
37657;SDS011;23500;53.268;8.308;2023-11-21T03:45:31;2.60;;;1.80;;
37657;SDS011;23500;53.268;8.308;2023-11-21T03:47:57;2.00;;;1.70;;
37657;SDS011;23500;53.268;8.308;2023-11-21T03:50:22;2.03;;;1.40;;
37657;SDS011;23500;53.268;8.308;2023-11-21T03:52:48;2.25;;;1.58;;
37657;SDS011;23500;53.268;8.308;2023-11-21T03:55:14;2.08;;;1.58;;
37657;SDS011;23500;53.268;8.308;2023-11-21T03:57:40;2.08;;;1.30;;
37657;SDS011;23500;53.268;8.308;2023-11-21T04:00:06;2.63;;;1.67;;
37657;SDS011;23500;53.268;8.308;2023-11-21T04:02:34;2.53;;;1.80;;
37657;SDS011;23500;53.268;8.308;2023-11-21T04:05:00;2.30;;;1.70;;
37657;SDS011;23500;53.268;8.308;2023-11-21T04:07:26;2.13;;;1.58;;
37657;SDS011;23500;53.268;8.308;2023-11-21T04:09:52;2.20;;;1.40;;
37657;SDS011;23500;53.268;8.308;2023-11-21T04:12:18;2.42;;;1.48;;
37657;SDS011;23500;53.268;8.308;2023-11-21T04:14:44;2.30;;;1.40;;
37657;SDS011;23500;53.268;8.308;2023-11-21T04:17:10;2.83;;;2.03;;
37657;SDS011;23500;53.268;8.308;2023-11-21T04:19:36;3.22;;;1.45;;
37657;SDS011;23500;53.268;8.308;2023-11-21T04:22:02;1.60;;;1.30;;
37657;SDS011;23500;53.268;8.308;2023-11-21T04:24:28;1.55;;;1.20;;
37657;SDS011;23500;53.268;8.308;2023-11-21T04:26:53;1.63;;;1.27;;
37657;SDS011;23500;53.268;8.308;2023-11-21T04:29:19;2.42;;;1.50;;
37657;SDS011;23500;53.268;8.308;2023-11-21T04:31:45;2.28;;;1.60;;
37657;SDS011;23500;53.268;8.308;2023-11-21T04:34:11;1.55;;;1.27;;
37657;SDS011;23500;53.268;8.308;2023-11-21T04:36:38;1.48;;;1.20;;
37657;SDS011;23500;53.268;8.308;2023-11-21T04:39:04;1.88;;;1.50;;
37657;SDS011;23500;53.268;8.308;2023-11-21T04:41:31;1.73;;;1.50;;
37657;SDS011;23500;53.268;8.308;2023-11-21T04:43:57;2.67;;;1.70;;
37657;SDS011;23500;53.268;8.308;2023-11-21T04:46:23;2.40;;;1.45;;
37657;SDS011;23500;53.268;8.308;2023-11-21T04:48:49;2.15;;;1.52;;
37657;SDS011;23500;53.268;8.308;2023-11-21T04:51:15;1.90;;;1.40;;
37657;SDS011;23500;53.268;8.308;2023-11-21T04:53:41;2.03;;;1.45;;
37657;SDS011;23500;53.268;8.308;2023-11-21T04:56:06;1.77;;;1.30;;
37657;SDS011;23500;53.268;8.308;2023-11-21T04:58:32;2.00;;;1.40;;
37657;SDS011;23500;53.268;8.308;2023-11-21T05:00:58;1.83;;;1.38;;
37657;SDS011;23500;53.268;8.308;2023-11-21T05:03:24;1.65;;;1.33;;
37657;SDS011;23500;53.268;8.308;2023-11-21T05:05:49;1.77;;;1.30;;
37657;SDS011;23500;53.268;8.308;2023-11-21T05:08:15;1.92;;;1.30;;
37657;SDS011;23500;53.268;8.308;2023-11-21T05:10:41;1.77;;;1.30;;
37657;SDS011;23500;53.268;8.308;2023-11-21T05:13:07;1.92;;;1.40;;
37657;SDS011;23500;53.268;8.308;2023-11-21T05:15:37;2.05;;;1.40;;
37657;SDS011;23500;53.268;8.308;2023-11-21T05:18:04;2.47;;;1.38;;
37657;SDS011;23500;53.268;8.308;2023-11-21T05:20:30;1.33;;;1.23;;
37657;SDS011;23500;53.268;8.308;2023-11-21T05:22:56;2.42;;;1.30;;
37657;SDS011;23500;53.268;8.308;2023-11-21T05:25:21;1.58;;;1.33;;
37657;SDS011;23500;53.268;8.308;2023-11-21T05:27:47;3.05;;;1.30;;
37657;SDS011;23500;53.268;8.308;2023-11-21T05:30:13;2.72;;;1.42;;
37657;SDS011;23500;53.268;8.308;2023-11-21T05:32:40;1.77;;;1.30;;
37657;SDS011;23500;53.268;8.308;2023-11-21T05:35:09;1.88;;;1.38;;
37657;SDS011;23500;53.268;8.308;2023-11-21T05:37:40;2.58;;;1.48;;
37657;SDS011;23500;53.268;8.308;2023-11-21T05:40:07;2.03;;;1.45;;
37657;SDS011;23500;53.268;8.308;2023-11-21T05:42:33;1.52;;;1.20;;
37657;SDS011;23500;53.268;8.308;2023-11-21T05:45:00;1.65;;;1.08;;
37657;SDS011;23500;53.268;8.308;2023-11-21T05:47:38;1.30;;;1.13;;
37657;SDS011;23500;53.268;8.308;2023-11-21T05:50:11;4.20;;;1.45;;
37657;SDS011;23500;53.268;8.308;2023-11-21T05:52:43;1.80;;;1.35;;
37657;SDS011;23500;53.268;8.308;2023-11-21T05:55:09;1.33;;;1.02;;
37657;SDS011;23500;53.268;8.308;2023-11-21T05:57:39;1.50;;;1.40;;
37657;SDS011;23500;53.268;8.308;2023-11-21T06:00:06;2.55;;;1.20;;
37657;SDS011;23500;53.268;8.308;2023-11-21T06:02:38;2.65;;;1.10;;
37657;SDS011;23500;53.268;8.308;2023-11-21T06:05:05;1.65;;;1.27;;
37657;SDS011;23500;53.268;8.308;2023-11-21T06:07:33;1.67;;;1.40;;
37657;SDS011;23500;53.268;8.308;2023-11-21T06:10:01;1.90;;;1.30;;
37657;SDS011;23500;53.268;8.308;2023-11-21T06:12:30;1.45;;;1.30;;
37657;SDS011;23500;53.268;8.308;2023-11-21T06:15:00;1.98;;;1.60;;
37657;SDS011;23500;53.268;8.308;2023-11-21T06:17:29;1.90;;;1.40;;
37657;SDS011;23500;53.268;8.308;2023-11-21T06:19:54;1.85;;;1.35;;
37657;SDS011;23500;53.268;8.308;2023-11-21T06:22:20;2.05;;;1.25;;
37657;SDS011;23500;53.268;8.308;2023-11-21T06:24:46;1.38;;;1.20;;
37657;SDS011;23500;53.268;8.308;2023-11-21T06:27:12;2.50;;;1.30;;
37657;SDS011;23500;53.268;8.308;2023-11-21T06:29:37;2.00;;;1.42;;
37657;SDS011;23500;53.268;8.308;2023-11-21T06:32:03;3.63;;;1.83;;
37657;SDS011;23500;53.268;8.308;2023-11-21T06:34:30;4.50;;;2.00;;
37657;SDS011;23500;53.268;8.308;2023-11-21T06:36:56;6.22;;;2.95;;
37657;SDS011;23500;53.268;8.308;2023-11-21T06:39:22;6.13;;;2.45;;
37657;SDS011;23500;53.268;8.308;2023-11-21T06:41:49;4.65;;;1.83;;
37657;SDS011;23500;53.268;8.308;2023-11-21T06:44:15;11.02;;;2.20;;
37657;SDS011;23500;53.268;8.308;2023-11-21T06:46:40;6.07;;;2.00;;
37657;SDS011;23500;53.268;8.308;2023-11-21T06:49:07;5.13;;;2.25;;
37657;SDS011;23500;53.268;8.308;2023-11-21T06:51:34;6.80;;;2.20;;
37657;SDS011;23500;53.268;8.308;2023-11-21T06:53:59;9.43;;;2.40;;
37657;SDS011;23500;53.268;8.308;2023-11-21T06:56:25;8.50;;;3.05;;
37657;SDS011;23500;53.268;8.308;2023-11-21T06:58:51;7.05;;;2.83;;
37657;SDS011;23500;53.268;8.308;2023-11-21T07:01:19;12.82;;;3.08;;
37657;SDS011;23500;53.268;8.308;2023-11-21T07:03:45;9.77;;;3.47;;
37657;SDS011;23500;53.268;8.308;2023-11-21T07:06:11;9.80;;;3.63;;
37657;SDS011;23500;53.268;8.308;2023-11-21T07:08:37;10.05;;;3.67;;
37657;SDS011;23500;53.268;8.308;2023-11-21T07:11:03;14.05;;;4.18;;
37657;SDS011;23500;53.268;8.308;2023-11-21T07:13:29;15.15;;;4.15;;
37657;SDS011;23500;53.268;8.308;2023-11-21T07:15:56;13.88;;;3.97;;
37657;SDS011;23500;53.268;8.308;2023-11-21T07:18:25;11.38;;;3.85;;
37657;SDS011;23500;53.268;8.308;2023-11-21T07:20:50;11.30;;;3.65;;
37657;SDS011;23500;53.268;8.308;2023-11-21T07:23:17;8.48;;;3.80;;
37657;SDS011;23500;53.268;8.308;2023-11-21T07:25:42;10.57;;;3.90;;
37657;SDS011;23500;53.268;8.308;2023-11-21T07:28:08;11.98;;;4.10;;
37657;SDS011;23500;53.268;8.308;2023-11-21T07:30:35;8.45;;;2.80;;
37657;SDS011;23500;53.268;8.308;2023-11-21T07:33:00;8.63;;;3.50;;
37657;SDS011;23500;53.268;8.308;2023-11-21T07:35:26;12.40;;;4.05;;
37657;SDS011;23500;53.268;8.308;2023-11-21T07:37:52;15.75;;;5.88;;
37657;SDS011;23500;53.268;8.308;2023-11-21T07:40:18;25.83;;;8.00;;
37657;SDS011;23500;53.268;8.308;2023-11-21T07:42:43;25.13;;;7.90;;
37657;SDS011;23500;53.268;8.308;2023-11-21T07:45:09;26.52;;;8.35;;
37657;SDS011;23500;53.268;8.308;2023-11-21T07:47:35;22.77;;;7.70;;
37657;SDS011;23500;53.268;8.308;2023-11-21T07:50:04;22.98;;;7.35;;
37657;SDS011;23500;53.268;8.308;2023-11-21T07:52:32;24.92;;;7.00;;
37657;SDS011;23500;53.268;8.308;2023-11-21T07:54:58;26.08;;;7.93;;
37657;SDS011;23500;53.268;8.308;2023-11-21T07:57:24;23.42;;;6.80;;
37657;SDS011;23500;53.268;8.308;2023-11-21T07:59:50;19.95;;;6.18;;
37657;SDS011;23500;53.268;8.308;2023-11-21T08:02:18;16.95;;;6.43;;
37657;SDS011;23500;53.268;8.308;2023-11-21T08:04:44;22.02;;;7.13;;
37657;SDS011;23500;53.268;8.308;2023-11-21T08:07:10;24.40;;;7.55;;
37657;SDS011;23500;53.268;8.308;2023-11-21T08:09:36;24.17;;;7.97;;
37657;SDS011;23500;53.268;8.308;2023-11-21T08:12:01;23.85;;;8.48;;
37657;SDS011;23500;53.268;8.308;2023-11-21T08:14:28;16.88;;;7.05;;
37657;SDS011;23500;53.268;8.308;2023-11-21T08:16:54;24.15;;;8.27;;
37657;SDS011;23500;53.268;8.308;2023-11-21T08:19:22;24.95;;;7.70;;
37657;SDS011;23500;53.268;8.308;2023-11-21T08:21:50;20.35;;;7.63;;
37657;SDS011;23500;53.268;8.308;2023-11-21T08:24:16;25.67;;;8.20;;
37657;SDS011;23500;53.268;8.308;2023-11-21T08:26:42;23.50;;;7.95;;
37657;SDS011;23500;53.268;8.308;2023-11-21T08:29:08;20.85;;;7.82;;
37657;SDS011;23500;53.268;8.308;2023-11-21T08:31:34;21.40;;;7.32;;
37657;SDS011;23500;53.268;8.308;2023-11-21T08:33:59;22.67;;;7.78;;
37657;SDS011;23500;53.268;8.308;2023-11-21T08:36:28;21.35;;;7.40;;
37657;SDS011;23500;53.268;8.308;2023-11-21T08:38:53;20.40;;;7.50;;
37657;SDS011;23500;53.268;8.308;2023-11-21T08:41:19;20.70;;;7.18;;
37657;SDS011;23500;53.268;8.308;2023-11-21T08:43:47;18.65;;;7.28;;
37657;SDS011;23500;53.268;8.308;2023-11-21T08:46:15;18.92;;;7.38;;
37657;SDS011;23500;53.268;8.308;2023-11-21T08:48:42;20.33;;;7.47;;
37657;SDS011;23500;53.268;8.308;2023-11-21T08:51:09;21.90;;;7.68;;
37657;SDS011;23500;53.268;8.308;2023-11-21T08:53:37;19.92;;;7.45;;
37657;SDS011;23500;53.268;8.308;2023-11-21T08:56:03;18.15;;;7.10;;
37657;SDS011;23500;53.268;8.308;2023-11-21T08:58:30;21.58;;;7.00;;
37657;SDS011;23500;53.268;8.308;2023-11-21T09:00:57;20.27;;;7.07;;
37657;SDS011;23500;53.268;8.308;2023-11-21T09:03:23;21.92;;;7.03;;
37657;SDS011;23500;53.268;8.308;2023-11-21T09:05:49;16.25;;;6.28;;
37657;SDS011;23500;53.268;8.308;2023-11-21T09:08:14;19.45;;;7.05;;
37657;SDS011;23500;53.268;8.308;2023-11-21T09:10:40;17.20;;;6.85;;
37657;SDS011;23500;53.268;8.308;2023-11-21T09:13:08;15.98;;;6.30;;
37657;SDS011;23500;53.268;8.308;2023-11-21T09:15:34;18.65;;;7.40;;
37657;SDS011;23500;53.268;8.308;2023-11-21T09:18:00;17.30;;;6.78;;
37657;SDS011;23500;53.268;8.308;2023-11-21T09:20:27;16.77;;;7.07;;
37657;SDS011;23500;53.268;8.308;2023-11-21T09:22:53;15.75;;;6.28;;
37657;SDS011;23500;53.268;8.308;2023-11-21T09:25:20;14.65;;;6.40;;
37657;SDS011;23500;53.268;8.308;2023-11-21T09:27:46;16.13;;;6.38;;
37657;SDS011;23500;53.268;8.308;2023-11-21T09:30:12;17.20;;;6.20;;
37657;SDS011;23500;53.268;8.308;2023-11-21T09:32:39;16.17;;;6.45;;
37657;SDS011;23500;53.268;8.308;2023-11-21T09:35:05;17.88;;;6.25;;
37657;SDS011;23500;53.268;8.308;2023-11-21T09:37:34;13.85;;;6.68;;
37657;SDS011;23500;53.268;8.308;2023-11-21T09:40:01;14.65;;;6.43;;
37657;SDS011;23500;53.268;8.308;2023-11-21T09:42:38;13.85;;;6.07;;
37657;SDS011;23500;53.268;8.308;2023-11-21T09:47:41;14.43;;;6.15;;
37657;SDS011;23500;53.268;8.308;2023-11-21T09:50:08;15.57;;;6.05;;
37657;SDS011;23500;53.268;8.308;2023-11-21T09:52:55;13.48;;;5.78;;
37657;SDS011;23500;53.268;8.308;2023-11-21T09:55:27;14.20;;;6.07;;
37657;SDS011;23500;53.268;8.308;2023-11-21T09:58:00;11.43;;;5.70;;
37657;SDS011;23500;53.268;8.308;2023-11-21T10:00:28;12.85;;;5.95;;
37657;SDS011;23500;53.268;8.308;2023-11-21T10:02:58;14.02;;;6.55;;
37657;SDS011;23500;53.268;8.308;2023-11-21T10:05:24;12.90;;;5.43;;
37657;SDS011;23500;53.268;8.308;2023-11-21T10:07:50;12.88;;;5.28;;
37657;SDS011;23500;53.268;8.308;2023-11-21T10:10:19;9.93;;;4.97;;
37657;SDS011;23500;53.268;8.308;2023-11-21T10:12:48;11.55;;;5.65;;
37657;SDS011;23500;53.268;8.308;2023-11-21T10:15:21;10.73;;;5.05;;
37657;SDS011;23500;53.268;8.308;2023-11-21T10:17:48;13.15;;;5.90;;
37657;SDS011;23500;53.268;8.308;2023-11-21T10:20:15;14.07;;;5.43;;
37657;SDS011;23500;53.268;8.308;2023-11-21T10:22:42;11.43;;;5.45;;
37657;SDS011;23500;53.268;8.308;2023-11-21T10:25:09;10.57;;;5.15;;
37657;SDS011;23500;53.268;8.308;2023-11-21T10:27:36;12.88;;;5.40;;
37657;SDS011;23500;53.268;8.308;2023-11-21T10:30:04;10.98;;;4.97;;
37657;SDS011;23500;53.268;8.308;2023-11-21T10:32:31;12.25;;;5.03;;
37657;SDS011;23500;53.268;8.308;2023-11-21T10:34:58;12.15;;;5.18;;
37657;SDS011;23500;53.268;8.308;2023-11-21T10:37:25;11.57;;;5.10;;
37657;SDS011;23500;53.268;8.308;2023-11-21T10:39:58;12.98;;;5.38;;
37657;SDS011;23500;53.268;8.308;2023-11-21T10:42:24;10.93;;;4.90;;
37657;SDS011;23500;53.268;8.308;2023-11-21T10:44:51;7.93;;;4.45;;
37657;SDS011;23500;53.268;8.308;2023-11-21T10:47:17;10.77;;;4.90;;
37657;SDS011;23500;53.268;8.308;2023-11-21T10:49:44;10.00;;;4.85;;
37657;SDS011;23500;53.268;8.308;2023-11-21T10:52:13;8.50;;;4.70;;
37657;SDS011;23500;53.268;8.308;2023-11-21T10:54:42;9.63;;;4.70;;
37657;SDS011;23500;53.268;8.308;2023-11-21T10:57:09;8.82;;;4.70;;
37657;SDS011;23500;53.268;8.308;2023-11-21T10:59:36;8.48;;;4.65;;
37657;SDS011;23500;53.268;8.308;2023-11-21T11:02:07;9.23;;;4.78;;
37657;SDS011;23500;53.268;8.308;2023-11-21T11:04:50;8.25;;;4.18;;
37657;SDS011;23500;53.268;8.308;2023-11-21T11:07:17;8.50;;;4.50;;
37657;SDS011;23500;53.268;8.308;2023-11-21T11:09:44;7.72;;;4.60;;
37657;SDS011;23500;53.268;8.308;2023-11-21T11:12:12;7.10;;;4.25;;
37657;SDS011;23500;53.268;8.308;2023-11-21T11:14:40;8.50;;;4.28;;
37657;SDS011;23500;53.268;8.308;2023-11-21T11:17:08;8.35;;;4.45;;
37657;SDS011;23500;53.268;8.308;2023-11-21T11:19:35;8.57;;;4.20;;
37657;SDS011;23500;53.268;8.308;2023-11-21T11:27:48;8.80;;;4.28;;
37657;SDS011;23500;53.268;8.308;2023-11-21T11:30:32;7.03;;;4.18;;
37657;SDS011;23500;53.268;8.308;2023-11-21T11:38:38;6.55;;;3.80;;
37657;SDS011;23500;53.268;8.308;2023-11-21T11:41:10;5.93;;;3.88;;
37657;SDS011;23500;53.268;8.308;2023-11-21T11:43:35;6.95;;;3.78;;
37657;SDS011;23500;53.268;8.308;2023-11-21T11:46:10;7.03;;;4.05;;
37657;SDS011;23500;53.268;8.308;2023-11-21T11:48:40;6.18;;;3.53;;
37657;SDS011;23500;53.268;8.308;2023-11-21T11:51:15;7.78;;;4.30;;
37657;SDS011;23500;53.268;8.308;2023-11-21T11:53:45;6.72;;;3.65;;
37657;SDS011;23500;53.268;8.308;2023-11-21T11:58:48;8.27;;;3.80;;
37657;SDS011;23500;53.268;8.308;2023-11-21T12:01:19;7.50;;;3.78;;
37657;SDS011;23500;53.268;8.308;2023-11-21T12:04:22;8.88;;;3.40;;
37657;SDS011;23500;53.268;8.308;2023-11-21T12:06:45;8.98;;;3.45;;
37657;SDS011;23500;53.268;8.308;2023-11-21T12:09:20;6.82;;;3.90;;
37657;SDS011;23500;53.268;8.308;2023-11-21T12:11:51;9.88;;;3.90;;
37657;SDS011;23500;53.268;8.308;2023-11-21T12:14:16;6.75;;;3.50;;
37657;SDS011;23500;53.268;8.308;2023-11-21T12:16:43;8.65;;;3.70;;
37657;SDS011;23500;53.268;8.308;2023-11-21T12:19:12;6.47;;;3.33;;
37657;SDS011;23500;53.268;8.308;2023-11-21T12:21:38;7.22;;;3.60;;
37657;SDS011;23500;53.268;8.308;2023-11-21T12:24:07;7.72;;;3.60;;
37657;SDS011;23500;53.268;8.308;2023-11-21T12:26:38;6.78;;;3.30;;
37657;SDS011;23500;53.268;8.308;2023-11-21T12:29:05;7.85;;;3.65;;
37657;SDS011;23500;53.268;8.308;2023-11-21T12:31:32;9.00;;;3.63;;
37657;SDS011;23500;53.268;8.308;2023-11-21T12:33:59;6.60;;;3.58;;
37657;SDS011;23500;53.268;8.308;2023-11-21T12:36:25;9.30;;;4.00;;
37657;SDS011;23500;53.268;8.308;2023-11-21T12:38:51;6.00;;;3.28;;
37657;SDS011;23500;53.268;8.308;2023-11-21T12:41:17;9.95;;;3.65;;
37657;SDS011;23500;53.268;8.308;2023-11-21T12:43:46;6.43;;;3.60;;
37657;SDS011;23500;53.268;8.308;2023-11-21T12:46:13;6.75;;;3.22;;
37657;SDS011;23500;53.268;8.308;2023-11-21T12:48:43;8.65;;;3.63;;
37657;SDS011;23500;53.268;8.308;2023-11-21T12:51:11;5.80;;;3.55;;
37657;SDS011;23500;53.268;8.308;2023-11-21T12:53:39;6.93;;;3.28;;
37657;SDS011;23500;53.268;8.308;2023-11-21T12:56:14;7.90;;;3.65;;
37657;SDS011;23500;53.268;8.308;2023-11-21T12:58:44;5.78;;;3.20;;
37657;SDS011;23500;53.268;8.308;2023-11-21T13:01:15;5.00;;;3.03;;
37657;SDS011;23500;53.268;8.308;2023-11-21T13:03:46;7.00;;;3.55;;
37657;SDS011;23500;53.268;8.308;2023-11-21T13:06:16;5.75;;;3.50;;
37657;SDS011;23500;53.268;8.308;2023-11-21T13:08:44;5.63;;;3.60;;
37657;SDS011;23500;53.268;8.308;2023-11-21T13:11:10;5.07;;;3.50;;
37657;SDS011;23500;53.268;8.308;2023-11-21T13:13:39;7.43;;;3.58;;
37657;SDS011;23500;53.268;8.308;2023-11-21T13:16:06;6.07;;;3.20;;
37657;SDS011;23500;53.268;8.308;2023-11-21T13:18:33;6.53;;;3.72;;
37657;SDS011;23500;53.268;8.308;2023-11-21T13:21:01;9.63;;;3.53;;
37657;SDS011;23500;53.268;8.308;2023-11-21T13:23:34;5.70;;;2.95;;
37657;SDS011;23500;53.268;8.308;2023-11-21T13:26:01;6.30;;;2.97;;
37657;SDS011;23500;53.268;8.308;2023-11-21T13:28:32;7.00;;;3.47;;
37657;SDS011;23500;53.268;8.308;2023-11-21T13:30:58;5.15;;;3.08;;
37657;SDS011;23500;53.268;8.308;2023-11-21T13:33:34;7.05;;;3.30;;
37657;SDS011;23500;53.268;8.308;2023-11-21T13:36:03;5.13;;;2.97;;
37657;SDS011;23500;53.268;8.308;2023-11-21T13:38:32;4.78;;;3.35;;
37657;SDS011;23500;53.268;8.308;2023-11-21T13:41:00;4.75;;;2.90;;
37657;SDS011;23500;53.268;8.308;2023-11-21T13:43:26;6.75;;;2.80;;
37657;SDS011;23500;53.268;8.308;2023-11-21T13:45:57;4.55;;;3.03;;
37657;SDS011;23500;53.268;8.308;2023-11-21T13:48:29;4.75;;;3.08;;
37657;SDS011;23500;53.268;8.308;2023-11-21T13:51:06;6.28;;;2.90;;
37657;SDS011;23500;53.268;8.308;2023-11-21T13:53:45;12.15;;;3.13;;
37657;SDS011;23500;53.268;8.308;2023-11-21T13:56:17;5.03;;;2.95;;
37657;SDS011;23500;53.268;8.308;2023-11-21T13:58:51;3.75;;;3.20;;
37657;SDS011;23500;53.268;8.308;2023-11-21T14:01:19;3.45;;;2.72;;
37657;SDS011;23500;53.268;8.308;2023-11-21T14:03:48;4.43;;;2.80;;
37657;SDS011;23500;53.268;8.308;2023-11-21T14:06:21;4.90;;;2.60;;
37657;SDS011;23500;53.268;8.308;2023-11-21T14:08:52;4.47;;;3.42;;
37657;SDS011;23500;53.268;8.308;2023-11-21T14:11:21;4.88;;;3.30;;
37657;SDS011;23500;53.268;8.308;2023-11-21T14:13:47;3.58;;;2.88;;
37657;SDS011;23500;53.268;8.308;2023-11-21T14:16:13;4.57;;;2.92;;
37657;SDS011;23500;53.268;8.308;2023-11-21T14:18:42;5.35;;;2.90;;
37657;SDS011;23500;53.268;8.308;2023-11-21T14:21:19;5.45;;;3.35;;
37657;SDS011;23500;53.268;8.308;2023-11-21T14:23:44;6.35;;;3.08;;
37657;SDS011;23500;53.268;8.308;2023-11-21T14:26:13;4.15;;;2.63;;
37657;SDS011;23500;53.268;8.308;2023-11-21T14:28:40;6.03;;;3.05;;
37657;SDS011;23500;53.268;8.308;2023-11-21T14:31:06;5.20;;;2.67;;
37657;SDS011;23500;53.268;8.308;2023-11-21T14:33:33;5.07;;;2.72;;
37657;SDS011;23500;53.268;8.308;2023-11-21T14:35:59;4.82;;;2.92;;
37657;SDS011;23500;53.268;8.308;2023-11-21T14:38:24;3.47;;;2.80;;
37657;SDS011;23500;53.268;8.308;2023-11-21T14:40:50;4.03;;;2.53;;
37657;SDS011;23500;53.268;8.308;2023-11-21T14:43:16;2.60;;;2.40;;
37657;SDS011;23500;53.268;8.308;2023-11-21T14:45:47;3.80;;;2.53;;
37657;SDS011;23500;53.268;8.308;2023-11-21T14:48:14;5.18;;;2.72;;
37657;SDS011;23500;53.268;8.308;2023-11-21T14:50:54;4.07;;;2.38;;
37657;SDS011;23500;53.268;8.308;2023-11-21T14:53:28;4.18;;;2.70;;
37657;SDS011;23500;53.268;8.308;2023-11-21T14:56:19;5.50;;;2.78;;
37657;SDS011;23500;53.268;8.308;2023-11-21T14:58:59;3.97;;;2.28;;
37657;SDS011;23500;53.268;8.308;2023-11-21T15:01:32;3.78;;;2.45;;
37657;SDS011;23500;53.268;8.308;2023-11-21T15:04:20;3.90;;;2.42;;